Time;durP1;ratioP1;P1;durP2;ratioP2;P2;SDS_P1;SDS_P2;PMS_P1;PMS_P2;Temp;Humidity;BMP_temperature;BMP_pressure;BME280_temperature;BME280_humidity;BME280_pressure;Samples;Min_cycle;Max_cycle;Signal;HPM_P1;HPM_P2
2022/09/10 00:00:03;;;;;;;0.00;0.00;;;;;;;;;;5127246;27;20031;-63
2022/09/10 00:02:29;;;;;;;0.00;0.00;;;;;;;;;;5128469;27;20023;-63
2022/09/10 00:04:54;;;;;;;0.00;0.00;;;;;;;;;;5130356;27;20050;-63
2022/09/10 00:07:19;;;;;;;0.00;0.00;;;;;;;;;;5131536;27;20442;-63
2022/09/10 00:09:44;;;;;;;0.00;0.00;;;;;;;;;;5128375;27;20439;-63
2022/09/10 00:12:10;;;;;;;0.00;0.00;;;;;;;;;;5130497;27;20435;-63
2022/09/10 00:14:36;;;;;;;0.00;0.00;;;;;;;;;;5130844;27;20464;-63
2022/09/10 00:17:01;;;;;;;0.00;0.00;;;;;;;;;;5130716;27;20105;-63
2022/09/10 00:19:27;;;;;;;0.00;0.00;;;;;;;;;;5130333;27;20465;-63
2022/09/10 00:21:52;;;;;;;0.00;0.00;;;;;;;;;;5129417;27;20075;-62
2022/09/10 00:24:17;;;;;;;0.00;0.00;;;;;;;;;;5131361;27;20051;-62
2022/09/10 00:26:43;;;;;;;0.00;0.00;;;;;;;;;;5131043;27;20047;-62
2022/09/10 00:29:10;;;;;;;0.00;0.00;;;;;;;;;;5130262;27;20023;-62
2022/09/10 00:31:36;;;;;;;1.33;1.25;;;;;;;;;;5129627;27;20130;-63
2022/09/10 00:34:01;;;;;;;0.00;0.00;;;;;;;;;;5131556;27;20494;-63
2022/09/10 00:36:28;;;;;;;0.00;0.00;;;;;;;;;;5131040;27;20042;-63
2022/09/10 00:38:53;;;;;;;0.00;0.00;;;;;;;;;;5129406;27;20489;-63
2022/09/10 00:41:20;;;;;;;0.00;0.00;;;;;;;;;;5128571;27;20027;-63
2022/09/10 00:43:59;;;;;;;0.00;0.00;;;;;;;;;;5129994;27;20023;-63
2022/09/10 00:46:45;;;;;;;0.00;0.00;;;;;;;;;;5130650;27;20030;-63
2022/09/10 00:49:20;;;;;;;0.00;0.00;;;;;;;;;;5127963;27;20279;-63
2022/09/10 00:51:46;;;;;;;0.00;0.00;;;;;;;;;;5128659;27;20041;-63
2022/09/10 00:54:11;;;;;;;0.00;0.00;;;;;;;;;;5129418;27;20023;-63
2022/09/10 00:56:37;;;;;;;0.00;0.00;;;;;;;;;;5130381;27;20023;-63
2022/09/10 00:59:03;;;;;;;0.00;0.00;;;;;;;;;;5129422;27;20089;-63
2022/09/10 01:01:29;;;;;;;0.00;0.00;;;;;;;;;;5129072;27;20047;-63
2022/09/10 01:03:55;;;;;;;0.00;0.00;;;;;;;;;;5130560;27;20015;-61
2022/09/10 01:06:20;;;;;;;0.00;0.00;;;;;;;;;;5129070;27;20499;-61
2022/09/10 01:08:45;;;;;;;0.00;0.00;;;;;;;;;;5127420;27;20019;-61
2022/09/10 01:11:14;;;;;;;0.00;0.00;;;;;;;;;;5129580;27;20042;-61
2022/09/10 01:13:48;;;;;;;0.00;0.00;;;;;;;;;;5129505;27;20467;-61
2022/09/10 01:16:23;;;;;;;0.00;0.00;;;;;;;;;;5129296;27;20034;-61
2022/09/10 01:18:48;;;;;;;0.00;0.00;;;;;;;;;;5127772;27;20047;-61
2022/09/10 01:21:16;;;;;;;0.00;0.00;;;;;;;;;;5129256;27;20798;-61
2022/09/10 01:23:44;;;;;;;0.20;0.20;;;;;;;;;;5128184;27;20037;-61
2022/09/10 01:26:25;;;;;;;9.50;0.77;;;;;;;;;;5130276;27;20019;-61
2022/09/10 01:29:00;;;;;;;0.00;0.00;;;;;;;;;;5127812;27;20037;-62
2022/09/10 01:31:40;;;;;;;0.00;0.00;;;;;;;;;;5129203;27;20532;-62
2022/09/10 01:34:09;;;;;;;0.00;0.00;;;;;;;;;;5128875;27;20034;-62
2022/09/10 01:36:37;;;;;;;0.00;0.00;;;;;;;;;;5128287;27;20064;-64
2022/09/10 01:39:03;;;;;;;0.00;0.00;;;;;;;;;;5128091;27;20668;-64
2022/09/10 01:41:28;;;;;;;0.00;0.00;;;;;;;;;;5126043;27;20023;-63
2022/09/10 01:43:53;;;;;;;0.00;0.00;;;;;;;;;;5129513;27;20440;-64
2022/09/10 01:46:33;;;;;;;0.00;0.00;;;;;;;;;;5129707;27;20042;-63
2022/09/10 01:49:01;;;;;;;0.00;0.00;;;;;;;;;;5127918;27;20023;-63
2022/09/10 01:51:27;;;;;;;0.00;0.00;;;;;;;;;;5129670;27;20065;-63
2022/09/10 01:53:52;;;;;;;0.00;0.00;;;;;;;;;;5127424;27;20031;-64
2022/09/10 01:56:23;;;;;;;0.10;0.10;;;;;;;;;;5128258;27;20079;-62
2022/09/10 01:58:49;;;;;;;0.00;0.00;;;;;;;;;;5126259;27;20035;-63
2022/09/10 02:01:33;;;;;;;0.57;0.57;;;;;;;;;;5129471;27;20456;-63
2022/09/10 02:04:01;;;;;;;0.00;0.00;;;;;;;;;;5126071;27;20023;-63
2022/09/10 02:06:28;;;;;;;0.52;0.52;;;;;;;;;;5127588;27;20505;-63
2022/09/10 02:08:55;;;;;;;0.00;0.00;;;;;;;;;;5128008;27;20039;-63
2022/09/10 02:11:21;;;;;;;0.00;0.00;;;;;;;;;;5129557;27;20027;-63
2022/09/10 02:13:46;;;;;;;0.00;0.00;;;;;;;;;;5127847;27;20026;-62
2022/09/10 02:16:14;;;;;;;0.00;0.00;;;;;;;;;;5129312;27;20023;-63
2022/09/10 02:18:41;;;;;;;0.00;0.00;;;;;;;;;;5128500;27;20463;-62
2022/09/10 02:21:06;;;;;;;0.00;0.00;;;;;;;;;;5126452;27;20023;-62
2022/09/10 02:23:52;;;;;;;0.00;0.00;;;;;;;;;;5128662;27;20061;-62
2022/09/10 02:26:17;;;;;;;0.00;0.00;;;;;;;;;;5126958;27;20159;-63
2022/09/10 02:28:42;;;;;;;0.00;0.00;;;;;;;;;;5126247;27;20137;-63
2022/09/10 02:31:08;;;;;;;0.00;0.00;;;;;;;;;;5128042;27;20027;-63
2022/09/10 02:33:34;;;;;;;0.00;0.00;;;;;;;;;;5128103;27;20030;-63
2022/09/10 02:36:00;;;;;;;0.00;0.00;;;;;;;;;;5124847;27;20007;-63
2022/09/10 02:38:25;;;;;;;0.00;0.00;;;;;;;;;;5128896;27;20021;-63
2022/09/10 02:40:50;;;;;;;0.00;0.00;;;;;;;;;;5128584;27;20015;-63
2022/09/10 02:43:16;;;;;;;0.00;0.00;;;;;;;;;;5128755;27;20051;-63
2022/09/10 02:45:41;;;;;;;0.00;0.00;;;;;;;;;;5128524;27;20019;-63
2022/09/10 02:48:07;;;;;;;0.00;0.00;;;;;;;;;;5123289;28;20066;-63
2022/09/10 02:50:32;;;;;;;0.00;0.00;;;;;;;;;;5124824;27;20645;-62
2022/09/10 02:52:59;;;;;;;0.20;0.20;;;;;;;;;;5126508;27;20108;-63
2022/09/10 02:55:25;;;;;;;0.00;0.00;;;;;;;;;;5128807;27;20022;-61
2022/09/10 02:57:50;;;;;;;0.00;0.00;;;;;;;;;;5127375;27;20043;-62
2022/09/10 03:00:15;;;;;;;0.10;0.10;;;;;;;;;;5128749;27;20356;-61
2022/09/10 03:02:40;;;;;;;0.00;0.00;;;;;;;;;;5128405;27;20015;-61
2022/09/10 03:05:06;;;;;;;0.00;0.00;;;;;;;;;;5127461;27;20498;-64
2022/09/10 03:07:31;;;;;;;0.00;0.00;;;;;;;;;;5127749;27;20528;-64
2022/09/10 03:09:56;;;;;;;0.00;0.00;;;;;;;;;;5125494;27;20019;-61
2022/09/10 03:12:21;;;;;;;0.00;0.00;;;;;;;;;;5127003;27;20054;-62
2022/09/10 03:14:47;;;;;;;0.00;0.00;;;;;;;;;;5127441;27;20269;-63
2022/09/10 03:17:13;;;;;;;0.00;0.00;;;;;;;;;;5128038;27;20675;-64
2022/09/10 03:19:38;;;;;;;0.00;0.00;;;;;;;;;;5127524;27;20053;-64
2022/09/10 03:22:04;;;;;;;0.00;0.00;;;;;;;;;;5128260;27;20582;-63
2022/09/10 03:24:29;;;;;;;0.00;0.00;;;;;;;;;;5128417;27;20015;-63
2022/09/10 03:26:55;;;;;;;0.53;0.40;;;;;;;;;;5127373;27;20027;-62
2022/09/10 03:29:22;;;;;;;0.43;0.43;;;;;;;;;;5127429;27;20269;-62
2022/09/10 03:31:47;;;;;;;0.00;0.00;;;;;;;;;;5128193;27;20064;-61
2022/09/10 03:34:13;;;;;;;0.63;0.63;;;;;;;;;;5126465;28;20031;-62
2022/09/10 03:36:38;;;;;;;0.00;0.00;;;;;;;;;;5123156;27;20024;-63
2022/09/10 03:39:03;;;;;;;0.00;0.00;;;;;;;;;;5128468;27;20476;-61
2022/09/10 03:41:29;;;;;;;0.00;0.00;;;;;;;;;;5128563;27;20063;-61
2022/09/10 03:43:54;;;;;;;0.00;0.00;;;;;;;;;;5129424;27;20027;-61
2022/09/10 03:46:20;;;;;;;0.00;0.00;;;;;;;;;;5132172;27;20560;-61
2022/09/10 03:48:45;;;;;;;0.00;0.00;;;;;;;;;;5131584;27;20367;-58
2022/09/10 03:51:11;;;;;;;0.00;0.00;;;;;;;;;;5131164;27;20034;-61
2022/09/10 03:53:37;;;;;;;0.00;0.00;;;;;;;;;;5131850;27;20019;-61
2022/09/10 03:56:02;;;;;;;0.00;0.00;;;;;;;;;;5132005;27;20007;-62
2022/09/10 03:58:27;;;;;;;0.00;0.00;;;;;;;;;;5129723;27;22041;-61
2022/09/10 04:00:53;;;;;;;0.00;0.00;;;;;;;;;;5127107;27;20038;-62
2022/09/10 04:03:19;;;;;;;0.10;0.10;;;;;;;;;;5129019;27;20027;-60
2022/09/10 04:05:44;;;;;;;0.00;0.00;;;;;;;;;;5125690;27;20105;-60
2022/09/10 04:08:10;;;;;;;0.00;0.00;;;;;;;;;;5130039;27;20051;-62
2022/09/10 04:10:35;;;;;;;0.05;0.05;;;;;;;;;;5129982;27;20030;-62
2022/09/10 04:13:01;;;;;;;0.13;0.13;;;;;;;;;;5130649;27;20031;-62
2022/09/10 04:15:26;;;;;;;0.00;0.00;;;;;;;;;;5131456;27;20019;-61
2022/09/10 04:17:51;;;;;;;0.00;0.00;;;;;;;;;;5129979;27;20088;-61
2022/09/10 04:20:20;;;;;;;0.15;0.10;;;;;;;;;;5130374;27;20390;-61
2022/09/10 04:22:46;;;;;;;0.13;0.13;;;;;;;;;;5130675;27;20344;-61
2022/09/10 04:25:11;;;;;;;0.10;0.10;;;;;;;;;;5129143;27;20012;-61
2022/09/10 04:27:37;;;;;;;0.00;0.00;;;;;;;;;;5129432;27;20072;-62
2022/09/10 04:30:02;;;;;;;0.10;0.10;;;;;;;;;;5130813;27;20018;-63
2022/09/10 04:32:27;;;;;;;0.00;0.00;;;;;;;;;;5128907;27;20069;-62
2022/09/10 04:34:53;;;;;;;0.30;0.30;;;;;;;;;;5130503;27;20126;-62
2022/09/10 04:37:20;;;;;;;1.30;1.20;;;;;;;;;;5128914;27;20273;-61
2022/09/10 04:39:45;;;;;;;0.00;0.00;;;;;;;;;;5128948;27;20035;-62
2022/09/10 04:42:12;;;;;;;0.00;0.00;;;;;;;;;;5130339;27;20031;-62
2022/09/10 04:44:37;;;;;;;0.13;0.13;;;;;;;;;;5130696;27;20026;-62
2022/09/10 04:47:03;;;;;;;0.08;0.08;;;;;;;;;;5130287;27;20627;-61
2022/09/10 04:49:28;;;;;;;0.00;0.00;;;;;;;;;;5128128;27;20027;-62
2022/09/10 04:51:53;;;;;;;0.15;0.15;;;;;;;;;;5129657;27;20585;-60
2022/09/10 04:54:18;;;;;;;0.08;0.08;;;;;;;;;;5126275;27;20037;-61
2022/09/10 04:56:45;;;;;;;0.00;0.00;;;;;;;;;;5124438;27;20069;-62
2022/09/10 04:59:10;;;;;;;0.00;0.00;;;;;;;;;;5129982;27;20062;-62
2022/09/10 05:01:35;;;;;;;0.75;0.75;;;;;;;;;;5128212;27;20012;-62
2022/09/10 05:04:01;;;;;;;0.00;0.00;;;;;;;;;;5129747;27;20421;-62
2022/09/10 05:06:26;;;;;;;0.00;0.00;;;;;;;;;;5130111;27;20261;-62
2022/09/10 05:08:54;;;;;;;0.00;0.00;;;;;;;;;;5128996;27;20051;-61
2022/09/10 05:11:20;;;;;;;0.00;0.00;;;;;;;;;;5128432;27;20034;-61
2022/09/10 05:13:45;;;;;;;0.00;0.00;;;;;;;;;;5125468;27;20379;-61
2022/09/10 05:16:11;;;;;;;0.00;0.00;;;;;;;;;;5130174;27;20061;-61
2022/09/10 05:18:36;;;;;;;0.00;0.00;;;;;;;;;;5130046;27;20105;-61
2022/09/10 05:21:01;;;;;;;0.00;0.00;;;;;;;;;;5128982;27;20478;-61
2022/09/10 05:23:26;;;;;;;0.00;0.00;;;;;;;;;;5128546;27;20500;-61
2022/09/10 05:25:51;;;;;;;0.00;0.00;;;;;;;;;;5129335;27;20043;-61
2022/09/10 05:28:17;;;;;;;0.00;0.00;;;;;;;;;;5126417;27;20095;-61
2022/09/10 05:30:43;;;;;;;0.00;0.00;;;;;;;;;;5128654;27;20108;-61
2022/09/10 05:33:08;;;;;;;0.00;0.00;;;;;;;;;;5129658;27;20035;-62
2022/09/10 05:35:34;;;;;;;0.00;0.00;;;;;;;;;;5129267;27;20027;-62
2022/09/10 05:37:59;;;;;;;0.10;0.10;;;;;;;;;;5128342;27;20033;-61
2022/09/10 05:40:25;;;;;;;0.00;0.00;;;;;;;;;;5126711;27;20019;-62
2022/09/10 05:42:51;;;;;;;0.15;0.15;;;;;;;;;;5129694;27;20479;-61
2022/09/10 05:45:18;;;;;;;0.00;0.00;;;;;;;;;;5127682;27;20012;-61
2022/09/10 05:47:43;;;;;;;2.53;1.27;;;;;;;;;;5128160;27;20015;-62
2022/09/10 05:50:10;;;;;;;1.35;1.35;;;;;;;;;;5128126;27;20372;-62
2022/09/10 05:52:35;;;;;;;0.00;0.00;;;;;;;;;;5129388;27;20019;-62
2022/09/10 05:55:00;;;;;;;0.00;0.00;;;;;;;;;;5129130;27;20015;-64
2022/09/10 05:57:25;;;;;;;0.00;0.00;;;;;;;;;;5125292;27;20053;-62
2022/09/10 05:59:51;;;;;;;0.00;0.00;;;;;;;;;;5128110;27;20335;-62
2022/09/10 06:02:17;;;;;;;0.00;0.00;;;;;;;;;;5127343;27;20452;-62
2022/09/10 06:04:42;;;;;;;0.00;0.00;;;;;;;;;;5128413;27;20460;-62
2022/09/10 06:07:08;;;;;;;0.00;0.00;;;;;;;;;;5128689;27;20027;-62
2022/09/10 06:09:33;;;;;;;0.20;0.20;;;;;;;;;;5129744;27;20068;-62
2022/09/10 06:11:58;;;;;;;0.00;0.00;;;;;;;;;;5129091;27;20433;-62
2022/09/10 06:14:23;;;;;;;0.00;0.00;;;;;;;;;;5126371;27;20058;-62
2022/09/10 06:16:50;;;;;;;0.00;0.00;;;;;;;;;;5128949;27;20459;-62
2022/09/10 06:19:16;;;;;;;3.10;1.30;;;;;;;;;;5128363;27;20031;-62
2022/09/10 06:21:41;;;;;;;1.48;0.13;;;;;;;;;;5127991;27;20036;-62
2022/09/10 06:24:06;;;;;;;0.57;0.57;;;;;;;;;;5128855;27;20506;-62
2022/09/10 06:26:31;;;;;;;0.00;0.00;;;;;;;;;;5123579;27;20106;-62
2022/09/10 06:28:57;;;;;;;0.00;0.00;;;;;;;;;;5123790;27;20102;-61
2022/09/10 06:31:22;;;;;;;0.10;0.10;;;;;;;;;;5125567;27;20030;-61
2022/09/10 06:33:50;;;;;;;0.00;0.00;;;;;;;;;;5124515;27;20027;-61
2022/09/10 06:36:15;;;;;;;2.55;0.35;;;;;;;;;;5128200;27;20027;-61
2022/09/10 06:38:40;;;;;;;0.00;0.00;;;;;;;;;;5126872;27;20022;-62
2022/09/10 06:41:06;;;;;;;0.00;0.00;;;;;;;;;;5127588;27;20477;-61
2022/09/10 06:43:35;;;;;;;0.00;0.00;;;;;;;;;;5128085;27;20042;-61
2022/09/10 06:46:00;;;;;;;0.10;0.10;;;;;;;;;;5128703;27;20015;-61
2022/09/10 06:48:28;;;;;;;0.00;0.00;;;;;;;;;;5126975;27;20042;-61
2022/09/10 06:50:57;;;;;;;0.10;0.10;;;;;;;;;;5128086;27;20507;-61
2022/09/10 06:53:23;;;;;;;0.05;0.05;;;;;;;;;;5126391;27;20028;-61
2022/09/10 06:55:49;;;;;;;0.32;0.20;;;;;;;;;;5125711;27;20481;-62
2022/09/10 06:58:14;;;;;;;0.00;0.00;;;;;;;;;;5127395;27;20510;-62
2022/09/10 07:00:40;;;;;;;1.45;0.47;;;;;;;;;;5128735;27;20023;-61
2022/09/10 07:03:05;;;;;;;0.47;0.47;;;;;;;;;;5128173;27;20019;-62
2022/09/10 07:05:33;;;;;;;0.00;0.00;;;;;;;;;;5126791;27;20025;-63
2022/09/10 07:07:59;;;;;;;0.00;0.00;;;;;;;;;;5128073;28;20026;-63
2022/09/10 07:10:24;;;;;;;0.52;0.52;;;;;;;;;;5127228;27;20023;-63
2022/09/10 07:12:49;;;;;;;0.10;0.10;;;;;;;;;;5126602;27;20529;-62
2022/09/10 07:15:15;;;;;;;7.73;1.73;;;;;;;;;;5128817;27;20031;-62
2022/09/10 07:17:43;;;;;;;0.10;0.10;;;;;;;;;;5128287;27;20671;-62
2022/09/10 07:20:08;;;;;;;1.38;1.00;;;;;;;;;;5130851;27;20428;-62
2022/09/10 07:22:33;;;;;;;3.83;1.90;;;;;;;;;;5132424;27;20031;-62
2022/09/10 07:24:59;;;;;;;0.20;0.17;;;;;;;;;;5127465;27;20023;-63
2022/09/10 07:27:24;;;;;;;4.20;0.30;;;;;;;;;;5131176;27;20018;-62
2022/09/10 07:29:50;;;;;;;0.00;0.00;;;;;;;;;;5131210;27;20026;-63
2022/09/10 07:32:16;;;;;;;0.03;0.03;;;;;;;;;;5128588;27;20015;-63
2022/09/10 07:34:41;;;;;;;0.20;0.20;;;;;;;;;;5123612;27;20080;-63
2022/09/10 07:37:07;;;;;;;0.25;0.25;;;;;;;;;;5119866;27;20460;-63
2022/09/10 07:39:32;;;;;;;0.00;0.00;;;;;;;;;;5124283;27;20069;-63
2022/09/10 07:41:59;;;;;;;0.00;0.00;;;;;;;;;;5120426;27;20086;-63
2022/09/10 07:44:24;;;;;;;1.02;1.02;;;;;;;;;;5127507;27;20349;-63
2022/09/10 07:46:50;;;;;;;1.90;0.22;;;;;;;;;;5125064;27;20535;-63
2022/09/10 07:49:15;;;;;;;0.55;0.55;;;;;;;;;;5121770;27;20502;-64
2022/09/10 07:51:41;;;;;;;0.00;0.00;;;;;;;;;;5122034;27;20023;-63
2022/09/10 07:54:06;;;;;;;0.00;0.00;;;;;;;;;;5123764;27;20028;-64
2022/09/10 07:56:33;;;;;;;0.08;0.08;;;;;;;;;;5120395;27;20077;-61
2022/09/10 07:58:58;;;;;;;0.17;0.17;;;;;;;;;;5119531;27;20051;-62
2022/09/10 08:01:23;;;;;;;0.00;0.00;;;;;;;;;;5121351;27;20502;-61
2022/09/10 08:03:48;;;;;;;0.00;0.00;;;;;;;;;;5121139;27;20020;-61
2022/09/10 08:06:14;;;;;;;0.00;0.00;;;;;;;;;;5123869;27;20360;-61
2022/09/10 08:08:39;;;;;;;0.00;0.00;;;;;;;;;;5122328;27;20476;-61
2022/09/10 08:11:12;;;;;;;0.10;0.10;;;;;;;;;;5118470;27;20016;-61
2022/09/10 08:13:37;;;;;;;1.08;0.40;;;;;;;;;;5120776;27;20038;-61
2022/09/10 08:16:04;;;;;;;0.28;0.28;;;;;;;;;;5125327;27;20031;-61
2022/09/10 08:18:29;;;;;;;0.00;0.00;;;;;;;;;;5124066;27;20947;-63
2022/09/10 08:20:54;;;;;;;0.00;0.00;;;;;;;;;;5123079;27;20088;-63
2022/09/10 08:23:20;;;;;;;0.00;0.00;;;;;;;;;;5118464;27;20053;-63
2022/09/10 08:25:50;;;;;;;0.00;0.00;;;;;;;;;;5110875;28;20019;-63
2022/09/10 08:28:16;;;;;;;;;;;;;;;;;;5118100;27;20031;-62
2022/09/10 08:30:41;;;;;;;0.00;0.00;;;;;;;;;;5110680;28;19941;-62
2022/09/10 08:33:07;;;;;;;0.00;0.00;;;;;;;;;;5110698;27;20072;-62
2022/09/10 08:35:36;;;;;;;0.52;0.52;;;;;;;;;;5109412;28;20031;-63
2022/09/10 08:38:02;;;;;;;0.00;0.00;;;;;;;;;;5109882;27;20145;-62
2022/09/10 08:40:28;;;;;;;0.20;0.20;;;;;;;;;;5118199;27;20527;-62
2022/09/10 08:42:53;;;;;;;0.38;0.38;;;;;;;;;;5114409;27;20032;-62
2022/09/10 08:45:22;;;;;;;0.40;0.40;;;;;;;;;;5112658;27;20019;-62
2022/09/10 08:48:12;;;;;;;0.00;0.00;;;;;;;;;;5123034;27;20027;-63
2022/09/10 08:50:37;;;;;;;;;;;;;;;;;;5119862;27;20046;-62
2022/09/10 08:53:21;;;;;;;0.10;0.10;;;;;;;;;;5119213;27;19908;-62
2022/09/10 08:55:48;;;;;;;1.85;0.90;;;;;;;;;;5110755;28;20336;-61
2022/09/10 08:58:17;;;;;;;0.00;0.00;;;;;;;;;;5123537;27;20477;-62
2022/09/10 09:00:44;;;;;;;0.00;0.00;;;;;;;;;;5110530;28;20073;-61
2022/09/10 09:03:21;;;;;;;0.10;0.08;;;;;;;;;;5114195;27;20124;-62
2022/09/10 09:06:02;;;;;;;0.00;0.00;;;;;;;;;;5114187;27;20039;-61
2022/09/10 09:08:29;;;;;;;0.38;0.38;;;;;;;;;;5112536;27;20044;-62
2022/09/10 09:10:55;;;;;;;0.20;0.20;;;;;;;;;;5121368;27;20038;-62
2022/09/10 09:13:21;;;;;;;0.00;0.00;;;;;;;;;;5123826;27;20464;-62
2022/09/10 09:15:52;;;;;;;0.40;0.40;;;;;;;;;;5123193;27;20337;-62
2022/09/10 09:18:23;;;;;;;0.47;0.47;;;;;;;;;;5124690;27;21638;-62
2022/09/10 09:21:01;;;;;;;1.55;0.52;;;;;;;;;;5116945;27;20024;-62
2022/09/10 09:24:00;;;;;;;0.17;0.10;;;;;;;;;;5113389;27;20031;-62
2022/09/10 09:26:31;;;;;;;0.00;0.00;;;;;;;;;;5104907;27;20047;-63
2022/09/10 09:29:09;;;;;;;0.00;0.00;;;;;;;;;;5110032;27;20038;-63
2022/09/10 09:31:41;;;;;;;0.80;0.80;;;;;;;;;;5110053;28;20030;-63
2022/09/10 09:34:13;;;;;;;1.10;1.05;;;;;;;;;;5109953;27;20024;-63
2022/09/10 09:36:44;;;;;;;0.17;0.17;;;;;;;;;;5110363;27;20092;-63
2022/09/10 09:39:19;;;;;;;0.52;0.52;;;;;;;;;;5120210;27;20110;-63
2022/09/10 09:41:44;;;;;;;0.38;0.38;;;;;;;;;;5119255;27;20483;-63
2022/09/10 09:44:35;;;;;;;0.10;0.10;;;;;;;;;;5119688;27;20030;-63
2022/09/10 09:47:01;;;;;;;1.05;1.00;;;;;;;;;;5113095;27;20027;-63
2022/09/10 09:49:26;;;;;;;0.10;0.10;;;;;;;;;;5118631;27;20380;-63
2022/09/10 09:51:52;;;;;;;0.20;0.20;;;;;;;;;;5109068;28;20019;-63
2022/09/10 09:54:20;;;;;;;0.00;0.00;;;;;;;;;;5115772;27;20429;-63
2022/09/10 09:56:48;;;;;;;0.00;0.00;;;;;;;;;;5126595;27;20092;-62
2022/09/10 09:59:23;;;;;;;0.00;0.00;;;;;;;;;;5117596;27;20039;-62
2022/09/10 10:01:50;;;;;;;0.00;0.00;;;;;;;;;;5125886;27;20475;-61
2022/09/10 10:04:21;;;;;;;0.00;0.00;;;;;;;;;;5114970;27;20020;-61
2022/09/10 10:06:52;;;;;;;0.00;0.00;;;;;;;;;;5117747;27;20578;-61
2022/09/10 10:09:19;;;;;;;0.00;0.00;;;;;;;;;;5115642;27;20042;-62
2022/09/10 10:11:49;;;;;;;0.00;0.00;;;;;;;;;;5114247;27;20027;-62
2022/09/10 10:14:18;;;;;;;0.10;0.10;;;;;;;;;;5122259;27;20023;-62
2022/09/10 10:16:46;;;;;;;0.00;0.00;;;;;;;;;;5123481;27;20027;-62
2022/09/10 10:19:30;;;;;;;0.00;0.00;;;;;;;;;;5116607;27;20384;-61
2022/09/10 10:21:58;;;;;;;0.00;0.00;;;;;;;;;;5107961;28;20016;-62
2022/09/10 10:24:31;;;;;;;0.00;0.00;;;;;;;;;;5108316;28;20019;-62
2022/09/10 10:26:58;;;;;;;0.00;0.00;;;;;;;;;;5116266;27;20065;-62
2022/09/10 10:29:23;;;;;;;0.00;0.00;;;;;;;;;;5110332;27;20027;-62
2022/09/10 10:31:49;;;;;;;0.60;0.30;;;;;;;;;;5110779;27;20031;-62
2022/09/10 10:34:33;;;;;;;0.30;0.10;;;;;;;;;;5113163;27;20122;-61
2022/09/10 10:37:16;;;;;;;0.80;0.28;;;;;;;;;;5107533;28;20480;-62
2022/09/10 10:39:50;;;;;;;0.00;0.00;;;;;;;;;;5108962;28;20097;-62
2022/09/10 10:42:20;;;;;;;0.00;0.00;;;;;;;;;;5107512;28;20024;-62
2022/09/10 10:44:46;;;;;;;0.00;0.00;;;;;;;;;;5108634;28;20080;-62
2022/09/10 10:47:18;;;;;;;6.45;0.32;;;;;;;;;;5111841;28;20023;-62
2022/09/10 10:49:56;;;;;;;0.00;0.00;;;;;;;;;;5108814;28;20019;-62
2022/09/10 10:52:22;;;;;;;0.00;0.00;;;;;;;;;;5108893;28;20062;-62
2022/09/10 10:55:06;;;;;;;0.20;0.20;;;;;;;;;;5112219;28;20047;-62
2022/09/10 10:57:50;;;;;;;0.00;0.00;;;;;;;;;;5112922;28;20187;-62
2022/09/10 11:00:17;;;;;;;0.00;0.00;;;;;;;;;;5113193;27;20023;-61
2022/09/10 11:02:45;;;;;;;0.00;0.00;;;;;;;;;;5123883;27;20055;-63
2022/09/10 11:05:21;;;;;;;0.52;0.05;;;;;;;;;;5129077;27;20023;-62
2022/09/10 11:07:46;;;;;;;0.75;0.55;;;;;;;;;;5115902;27;20007;-62
2022/09/10 11:10:21;;;;;;;0.30;0.30;;;;;;;;;;5116576;27;20024;-62
2022/09/10 11:12:54;;;;;;;0.00;0.00;;;;;;;;;;5120025;27;20359;-62
2022/09/10 11:15:33;;;;;;;0.00;0.00;;;;;;;;;;5118388;27;20037;-63
2022/09/10 11:18:06;;;;;;;0.00;0.00;;;;;;;;;;5115364;27;20027;-63
2022/09/10 11:20:37;;;;;;;1.40;0.98;;;;;;;;;;5118221;27;20023;-63
2022/09/10 11:23:29;;;;;;;0.38;0.38;;;;;;;;;;5112091;27;20026;-63
2022/09/10 11:26:02;;;;;;;0.17;0.05;;;;;;;;;;5106771;27;20047;-62
2022/09/10 11:28:30;;;;;;;0.35;0.35;;;;;;;;;;5123921;27;20022;-63
2022/09/10 11:31:00;;;;;;;0.00;0.00;;;;;;;;;;5121894;27;20110;-63
2022/09/10 11:33:38;;;;;;;2.30;2.17;;;;;;;;;;5117955;27;20051;-62
2022/09/10 11:36:10;;;;;;;1.75;1.67;;;;;;;;;;5119205;27;20023;-63
2022/09/10 11:38:45;;;;;;;0.00;0.00;;;;;;;;;;5111999;27;20032;-62
2022/09/10 11:41:10;;;;;;;0.75;0.75;;;;;;;;;;5114354;27;20027;-62
2022/09/10 11:43:44;;;;;;;0.50;0.50;;;;;;;;;;5120431;27;20051;-62
2022/09/10 11:46:15;;;;;;;0.28;0.28;;;;;;;;;;5115481;27;20261;-62
2022/09/10 11:48:47;;;;;;;1.83;1.73;;;;;;;;;;5119169;27;20487;-62
2022/09/10 11:51:21;;;;;;;3.83;1.58;;;;;;;;;;5122415;27;20034;-62
2022/09/10 11:53:46;;;;;;;3.40;2.55;;;;;;;;;;5128021;27;20031;-62
2022/09/10 11:56:29;;;;;;;0.10;0.10;;;;;;;;;;5115181;27;20076;-62
2022/09/10 11:59:14;;;;;;;0.00;0.00;;;;;;;;;;5116532;27;20104;-62
2022/09/10 12:01:39;;;;;;;0.60;0.60;;;;;;;;;;5119697;27;20110;-62
2022/09/10 12:04:21;;;;;;;0.00;0.00;;;;;;;;;;5125455;27;20102;-62
2022/09/10 12:06:55;;;;;;;2.40;0.80;;;;;;;;;;5119749;27;20242;-62
2022/09/10 12:09:35;;;;;;;5.63;2.05;;;;;;;;;;5122792;27;20367;-63
2022/09/10 12:12:00;;;;;;;2.97;1.30;;;;;;;;;;5117114;27;20114;-62
2022/09/10 12:14:26;;;;;;;0.00;0.00;;;;;;;;;;5119430;27;20212;-62
2022/09/10 12:17:12;;;;;;;1.05;0.93;;;;;;;;;;5127619;27;20023;-62
2022/09/10 12:19:44;;;;;;;0.95;0.82;;;;;;;;;;5124459;27;20110;-62
2022/09/10 12:22:19;;;;;;;3.78;1.80;;;;;;;;;;5111353;28;20080;-63
2022/09/10 12:25:14;;;;;;;2.67;2.47;;;;;;;;;;5111601;27;20503;-62
2022/09/10 12:27:45;;;;;;;5.50;3.88;;;;;;;;;;5121797;27;20027;-63
2022/09/10 12:30:33;;;;;;;6.45;5.90;;;;;;;;;;5110570;27;20024;-63
2022/09/10 12:33:00;;;;;;;3.35;3.05;;;;;;;;;;5106972;27;20036;-63
2022/09/10 12:35:33;;;;;;;2.85;2.75;;;;;;;;;;5111536;28;20089;-63
2022/09/10 12:38:16;;;;;;;9.13;4.57;;;;;;;;;;5110892;28;20699;-63
2022/09/10 12:40:43;;;;;;;1.10;1.05;;;;;;;;;;5112741;27;20088;-63
2022/09/10 12:43:29;;;;;;;0.00;0.00;;;;;;;;;;5111056;27;20073;-63
2022/09/10 12:46:00;;;;;;;9.80;6.00;;;;;;;;;;5118741;27;20108;-63
2022/09/10 12:48:26;;;;;;;0.80;0.77;;;;;;;;;;5131299;27;20023;-63
2022/09/10 12:50:55;;;;;;;8.70;4.80;;;;;;;;;;5127080;27;20110;-63
2022/09/10 12:53:47;;;;;;;13.38;3.90;;;;;;;;;;5129647;27;20027;-63
2022/09/10 12:56:12;;;;;;;16.20;3.75;;;;;;;;;;5114210;27;20499;-65
2022/09/10 12:58:46;;;;;;;3.20;2.90;;;;;;;;;;5116121;27;20040;-64
2022/09/10 13:01:30;;;;;;;2.33;2.22;;;;;;;;;;5110598;27;20290;-64
2022/09/10 13:03:57;;;;;;;0.63;0.63;;;;;;;;;;5111681;27;20042;-64
2022/09/10 13:06:33;;;;;;;3.97;3.63;;;;;;;;;;5110907;28;20030;-64
2022/09/10 13:08:58;;;;;;;5.82;5.28;;;;;;;;;;5110099;28;20484;-64
2022/09/10 13:11:23;;;;;;;2.13;1.88;;;;;;;;;;5116170;27;20140;-64
2022/09/10 13:13:52;;;;;;;3.55;3.35;;;;;;;;;;5114972;27;20076;-64
2022/09/10 13:16:17;;;;;;;0.22;0.22;;;;;;;;;;5109077;27;20023;-64
2022/09/10 13:18:42;;;;;;;6.32;2.80;;;;;;;;;;5129768;27;20523;-64
2022/09/10 13:21:23;;;;;;;3.75;3.22;;;;;;;;;;5110006;27;20030;-64
2022/09/10 13:23:51;;;;;;;1.88;1.77;;;;;;;;;;5108411;28;20026;-64
2022/09/10 13:26:37;;;;;;;0.77;0.77;;;;;;;;;;5109049;27;20068;-64
2022/09/10 13:29:10;;;;;;;0.43;0.43;;;;;;;;;;5109203;28;20080;-63
2022/09/10 13:31:39;;;;;;;0.32;0.32;;;;;;;;;;5125858;27;20020;-63
2022/09/10 13:34:13;;;;;;;3.38;1.92;;;;;;;;;;5111149;27;20786;-63
2022/09/10 13:36:39;;;;;;;0.65;0.65;;;;;;;;;;5126613;27;20023;-64
2022/09/10 13:39:30;;;;;;;0.00;0.00;;;;;;;;;;5117853;27;20433;-64
2022/09/10 13:42:19;;;;;;;0.55;0.50;;;;;;;;;;5106916;27;20114;-63
2022/09/10 13:44:52;;;;;;;1.50;0.95;;;;;;;;;;5103924;27;20041;-63
2022/09/10 13:47:20;;;;;;;0.65;0.65;;;;;;;;;;5129047;27;20030;-63
2022/09/10 13:49:51;;;;;;;0.73;0.43;;;;;;;;;;5128740;27;20054;-63
2022/09/10 13:52:20;;;;;;;0.10;0.05;;;;;;;;;;5108989;28;20575;-61
2022/09/10 13:54:46;;;;;;;0.20;0.20;;;;;;;;;;5122953;27;20535;-63
2022/09/10 13:57:16;;;;;;;1.48;0.73;;;;;;;;;;5111362;27;20096;-63
2022/09/10 13:59:42;;;;;;;0.95;0.68;;;;;;;;;;5113296;27;20068;-63
2022/09/10 14:02:07;;;;;;;0.30;0.30;;;;;;;;;;5108657;28;20448;-63
2022/09/10 14:04:36;;;;;;;0.22;0.22;;;;;;;;;;5116186;27;20483;-63
2022/09/10 14:07:12;;;;;;;0.10;0.10;;;;;;;;;;5110077;27;20044;-63
2022/09/10 14:09:42;;;;;;;0.00;0.00;;;;;;;;;;5111033;27;20015;-63
2022/09/10 14:12:08;;;;;;;0.10;0.10;;;;;;;;;;5108505;28;20022;-63
2022/09/10 14:14:36;;;;;;;0.00;0.00;;;;;;;;;;5108421;28;20483;-61
2022/09/10 14:17:04;;;;;;;0.00;0.00;;;;;;;;;;5108523;28;20024;-62
2022/09/10 14:19:36;;;;;;;1.17;1.17;;;;;;;;;;5107706;27;20480;-63
2022/09/10 14:22:02;;;;;;;0.00;0.00;;;;;;;;;;5120605;27;20132;-63
2022/09/10 14:24:43;;;;;;;0.00;0.00;;;;;;;;;;5111606;27;20103;-62
2022/09/10 14:27:14;;;;;;;0.00;0.00;;;;;;;;;;5108776;27;20045;-62
2022/09/10 14:29:41;;;;;;;0.00;0.00;;;;;;;;;;5108806;28;20015;-62
2022/09/10 14:32:16;;;;;;;0.00;0.00;;;;;;;;;;5108782;27;20547;-62
2022/09/10 14:34:41;;;;;;;0.43;0.20;;;;;;;;;;5115970;27;20042;-62
2022/09/10 14:37:25;;;;;;;0.00;0.00;;;;;;;;;;5111558;27;20035;-62
2022/09/10 14:39:50;;;;;;;0.00;0.00;;;;;;;;;;5109915;28;20024;-62
2022/09/10 14:42:25;;;;;;;0.00;0.00;;;;;;;;;;5108480;28;20046;-63
2022/09/10 14:44:51;;;;;;;0.00;0.00;;;;;;;;;;5107739;28;20049;-62
2022/09/10 14:47:35;;;;;;;0.00;0.00;;;;;;;;;;5107685;28;20114;-62
2022/09/10 14:50:20;;;;;;;0.00;0.00;;;;;;;;;;5107572;28;20347;-62
2022/09/10 14:52:45;;;;;;;0.77;0.77;;;;;;;;;;5107772;28;20050;-62